Latest Coastal Weather Observations for Bougainville Reef

IDQ60701

Issued at 8:51 pm EST Sunday 29 March 2015 (issued every 10 minutes, with the page automatically refreshed every 10 minutes)

About coastal observations | Map of coastal stations | Coastal observations for QLD | Marine services | Other Formats
Station Details ID: 200840 Name: BOUGAINVILLE REEF Lat: -15.49 Lon: 147.12 Height: 0.0 m
Data from the previous 72 hours. | See also: Recent months for locations in Queensland
Date/Time
EST
Temp

°C
Wind Pressure Rain
since 9am
mm
Weather Cloud Vis
km
Sea
Height
m
Swell
Dir
 
Speed
knots
Gust
knots
hPa Trend Height
m
Period
s
Dir
29/08:30pm 26.9 ESE 21 24 1014.7 - - - - - - - - -
29/08:00pm 26.7 ESE 21 23 1014.5 - - - - - - - - -
29/07:30pm 27.0 ESE 19 22 1014.3 - - - - - - - - -
29/07:00pm 27.0 SE 20 22 1013.8 - - - - - - - - -
29/06:30pm 27.0 ESE 20 23 1013.7 - - - - - - - - -
29/06:00pm 27.0 SE 19 23 1013.1 - - - - - - - - -
29/05:30pm 27.1 SE 20 23 1012.9 - - - - - - - - -
29/05:00pm 27.0 SE 20 22 1012.5 - - - - - - - - -
29/04:30pm 27.1 SE 20 23 1012.5 - - - - - - - - -
29/04:00pm 26.9 SE 20 23 1012.3 - - - - - - - - -
29/03:30pm 26.9 SE 19 21 1012.5 - - - - - - - - -
29/03:00pm 27.0 SE 21 23 1012.3 - - - - - - - - -
29/02:30pm 26.9 SE 20 23 1012.6 - - - - - - - - -
29/02:00pm 26.9 SE 20 22 1012.8 - - - - - - - - -
29/01:30pm 27.0 SE 21 23 1013.0 - - - - - - - - -
29/01:00pm 27.0 SE 21 24 1013.3 - - - - - - - - -
29/12:30pm 27.0 SE 21 25 1013.8 - - - - - - - - -
29/12:00pm 27.0 SE 21 25 1014.3 - - - - - - - - -
29/11:30am 26.9 SE 20 23 1014.6 - - - - - - - - -
29/11:00am 26.9 SE 20 23 1014.8 - - - - - - - - -
29/10:30am 26.9 SE 22 25 1014.9 - - - - - - - - -
29/10:00am 26.9 SE 22 24 1014.9 - - - - - - - - -
29/09:30am 26.7 ESE 21 24 1015.0 - - - - - - - - -
29/09:00am 25.9 SE 15 22 1014.9 - - - - - - - - -
29/08:30am 25.6 SE 16 18 1014.8 - - - - - - - - -
29/08:00am 26.0 SE 17 19 1014.2 - - - - - - - - -
29/07:30am 25.7 ESE 17 19 1014.1 - - - - - - - - -
29/07:00am 25.6 SE 17 21 1013.6 - - - - - - - - -
29/06:30am 25.7 ESE 16 19 1013.3 - - - - - - - - -
29/06:00am 23.2 ESE 22 24 1013.0 - - - - - - - - -
29/05:53am 23.8 E 22 30 1013.2 - - - - - - - - -
29/05:43am 24.6 SE 17 30 1013.0 - - - - - - - - -
29/05:30am 25.1 SE 16 18 1012.9 - - - - - - - - -
29/05:00am 23.8 ESE 19 17 1012.6 - - - - - - - - -
29/04:45am 24.4 ESE 22 25 1012.6 - - - - - - - - -
29/04:30am 25.0 SE 20 23 1012.5 - - - - - - - - -
29/04:00am 26.4 SE 17 19 1012.1 - - - - - - - - -
29/03:30am 26.2 SE 17 19 1012.1 - - - - - - - - -
29/03:00am 26.5 SE 17 21 1012.1 - - - - - - - - -
29/02:30am 26.4 SE 17 19 1012.4 - - - - - - - - -
29/02:00am 26.6 SE 18 21 1012.5 - - - - - - - - -
29/01:30am 26.4 SE 18 20 1012.8 - - - - - - - - -
29/01:00am 26.6 SE 16 20 1013.3 - - - - - - - - -
29/12:30am 26.7 SE 17 19 1013.5 - - - - - - - - -
29/12:00am 26.6 SE 17 18 1013.8 - - - - - - - - -
 
Date/Time
EST
Temp

°C
Wind Pressure Rain
since 9am
mm
Weather Cloud Vis
km
Sea
Height
m
Swell
Dir
 
Speed
knots
Gust
knots
hPa Trend Height
m
Period
s
Dir
28/11:30pm 26.6 SE 16 19 1014.1 - - - - - - - - -
28/11:00pm 26.6 SE 17 21 1014.0 - - - - - - - - -
28/10:30pm 26.2 ESE 19 23 1014.2 - - - - - - - - -
28/10:00pm 26.8 ESE 17 19 1014.2 - - - - - - - - -
28/09:30pm 26.7 ESE 16 18 1014.2 - - - - - - - - -
28/09:00pm 26.9 ESE 18 20 1014.0 - - - - - - - - -
28/08:30pm 26.9 ESE 17 21 1013.9 - - - - - - - - -
28/08:00pm 25.2 SE 16 17 1013.7 - - - - - - - - -
28/07:30pm 24.3 SE 13 15 1013.8 - - - - - - - - -
28/07:10pm 26.1 ESE 17 27 1013.4 - - - - - - - - -
28/07:00pm 27.0 SE 15 16 1013.2 - - - - - - - - -
28/06:30pm 26.9 SE 15 17 1013.2 - - - - - - - - -
28/06:00pm 26.7 SE 16 20 1012.6 - - - - - - - - -
28/05:30pm 27.1 SSE 18 20 1012.5 - - - - - - - - -
28/05:00pm 27.4 SE 16 21 1012.1 - - - - - - - - -
28/04:30pm 27.5 SE 17 19 1012.0 - - - - - - - - -
28/04:00pm 27.4 SE 17 20 1011.7 - - - - - - - - -
28/03:30pm 27.5 SE 18 20 1012.0 - - - - - - - - -
28/03:00pm 27.4 SE 16 22 1012.0 - - - - - - - - -
28/02:30pm 27.3 SE 16 19 1012.3 - - - - - - - - -
28/02:00pm 27.2 SE 16 18 1012.7 - - - - - - - - -
28/01:30pm 27.2 SSE 16 18 1012.9 - - - - - - - - -
28/01:00pm 27.3 SE 18 20 1013.2 - - - - - - - - -
28/12:30pm 27.4 SE 18 21 1013.5 - - - - - - - - -
28/12:00pm 27.2 SE 17 21 1014.1 - - - - - - - - -
28/11:30am 27.2 SE 17 19 1014.5 - - - - - - - - -
28/11:00am 27.3 SE 17 17 1014.8 - - - - - - - - -
28/10:30am 27.1 SE 18 20 1014.9 - - - - - - - - -
28/10:00am 27.2 SE 17 20 1014.8 - - - - - - - - -
28/09:30am 27.2 SE 18 20 1015.0 - - - - - - - - -
28/09:00am 27.1 SE 17 20 1015.1 - - - - - - - - -
28/08:30am 27.2 SE 18 21 1015.0 - - - - - - - - -
28/08:00am 27.2 SE 18 23 1014.3 - - - - - - - - -
28/07:30am 27.1 SE 17 19 1014.2 - - - - - - - - -
28/07:00am 27.0 SE 17 19 1014.0 - - - - - - - - -
28/06:30am 26.8 ESE 17 20 1013.9 - - - - - - - - -
28/06:00am 26.8 SE 16 18 1013.4 - - - - - - - - -
28/05:30am 26.9 SE 17 19 1013.2 - - - - - - - - -
28/05:00am 26.9 SE 18 20 1012.8 - - - - - - - - -
28/04:30am 26.9 SE 18 20 1012.8 - - - - - - - - -
28/04:00am 27.0 SE 20 22 1012.6 - - - - - - - - -
28/03:30am 27.0 SE 19 23 1012.6 - - - - - - - - -
28/03:00am 27.2 SE 20 22 1012.6 - - - - - - - - -
28/02:30am 27.3 ESE 20 23 1012.8 - - - - - - - - -
28/02:00am 27.2 SE 17 22 1013.0 - - - - - - - - -
28/01:30am 26.8 SE 19 22 1013.2 - - - - - - - - -
28/01:00am 27.4 SE 19 21 1013.5 - - - - - - - - -
28/12:30am 27.4 SE 18 21 1013.8 - - - - - - - - -
28/12:00am 27.4 SE 18 22 1013.9 - - - - - - - - -
 
Date/Time
EST
Temp

°C
Wind Pressure Rain
since 9am
mm
Weather Cloud Vis
km
Sea
Height
m
Swell
Dir
 
Speed
knots
Gust
knots
hPa Trend Height
m
Period
s
Dir
27/11:30pm 27.3 SSE 18 21 1014.3 - - - - - - - - -
27/11:00pm 27.5 SSE 18 22 1014.6 - - - - - - - - -
27/10:30pm 27.5 SSE 16 19 1014.7 - - - - - - - - -
27/10:00pm 27.7 SSE 18 19 1014.8 - - - - - - - - -
27/09:30pm 27.6 SSE 17 19 1014.8 - - - - - - - - -
27/09:00pm 27.7 SE 17 20 1014.4 - - - - - - - - -
27/08:30pm 27.7 SE 16 18 1014.4 - - - - - - - - -
27/08:00pm 27.6 SE 16 19 1013.7 - - - - - - - - -
27/07:30pm 27.5 SSE 15 18 1013.6 - - - - - - - - -
27/07:00pm 27.6 SSE 15 17 1013.3 - - - - - - - - -
27/06:30pm 27.5 SE 15 16 1013.1 - - - - - - - - -
27/06:00pm 27.6 SE 14 16 1012.7 - - - - - - - - -
27/05:30pm 27.6 SE 12 14 1012.7 - - - - - - - - -
27/05:00pm 27.5 SSE 13 14 1012.3 - - - - - - - - -
27/04:30pm 27.5 SE 12 14 1012.3 - - - - - - - - -
27/04:00pm 27.6 SE 11 13 1012.0 - - - - - - - - -
27/03:30pm 27.5 SE 12 13 1012.0 - - - - - - - - -
27/03:00pm 27.6 SE 13 15 1012.0 - - - - - - - - -
27/02:30pm 27.6 SE 14 15 1012.4 - - - - - - - - -
27/02:00pm 27.6 ESE 15 16 1012.6 - - - - - - - - -
27/01:30pm 27.6 ESE 15 17 1012.9 - - - - - - - - -
27/01:00pm 27.6 SE 16 19 1013.5 - - - - - - - - -
27/12:30pm 27.4 ESE 17 19 1013.7 - - - - - - - - -
27/12:00pm 27.7 ESE 17 21 1014.2 - - - - - - - - -
27/11:30am 27.8 ESE 18 20 1014.7 - - - - - - - - -
27/11:00am 27.6 SE 19 20 1015.0 - - - - - - - - -
27/10:30am 27.6 ESE 18 21 1015.3 - - - - - - - - -
27/10:00am 27.6 ESE 16 21 1015.4 - - - - - - - - -
27/09:30am 27.6 ESE 17 19 1015.6 - - - - - - - - -
27/09:00am 27.5 SE 16 19 1015.6 - - - - - - - - -
27/08:30am 27.4 ESE 16 18 1015.6 - - - - - - - - -
27/08:00am 27.4 SE 17 20 1014.9 - - - - - - - - -
27/07:30am 27.4 ESE 15 17 1014.9 - - - - - - - - -
27/07:00am 27.3 SE 17 19 1014.2 - - - - - - - - -
27/06:30am 27.2 SE 16 18 1014.0 - - - - - - - - -
27/06:00am 27.2 SE 16 19 1013.7 - - - - - - - - -
27/05:30am 27.2 SE 16 18 1013.6 - - - - - - - - -
27/05:00am 27.2 SE 15 18 1013.4 - - - - - - - - -
27/04:30am 27.3 SE 16 18 1013.4 - - - - - - - - -
27/04:00am 27.2 SE 15 17 1013.2 - - - - - - - - -
27/03:30am 27.2 SE 15 17 1013.4 - - - - - - - - -
27/03:00am 27.2 SSE 14 17 1013.4 - - - - - - - - -
27/02:30am 27.2 SSE 15 17 1013.7 - - - - - - - - -
27/02:00am 27.3 SSE 13 16 1014.2 - - - - - - - - -
27/01:30am 27.3 SE 13 15 1014.5 - - - - - - - - -
27/01:00am 27.3 SE 14 17 1014.8 - - - - - - - - -
27/12:30am 27.3 SE 14 15 1015.2 - - - - - - - - -
27/12:00am 27.5 SE 14 15 1015.5 - - - - - - - - -
 
Date/Time
EST
Temp

°C
Wind Pressure Rain
since 9am
mm
Weather Cloud Vis
km
Sea
Height
m
Swell
Dir
 
Speed
knots
Gust
knots
hPa Trend Height
m
Period
s
Dir
26/11:30pm 27.6 SE 14 16 1015.7 - - - - - - - - -
26/11:00pm 27.5 SE 16 19 1015.6 - - - - - - - - -
26/10:30pm 27.6 SE 17 20 1015.6 - - - - - - - - -
26/10:00pm 27.6 SE 17 21 1015.4 - - - - - - - - -
26/09:30pm 27.7 SE 17 20 1015.4 - - - - - - - - -
26/09:00pm 27.6 SE 18 22 1014.8 - - - - - - - - -

Other Formats:

Comma delimited format used in spreadsheet applications
http://www.bom.gov.au/fwo/IDQ60701/IDQ60701.95288.axf

JavaScript Object Notation format (JSON) in row-major order
http://www.bom.gov.au/fwo/IDQ60701/IDQ60701.95288.json